Atlasburg, Pennsylvania
Current Conditions -  °F | °C
As of 9:51 AM on Saturday 20 Dec 2014 (Local Time) from KPIT Reporting Station
Overcast Overcast  
Wind Chill: 22°   Ceiling: 2300
Heat Index: 27°   Visibility: 10mi
Dew Point: 19°   Wind: 5mph
Humidity: 72%   Direction: 60°ENE
Pressure: 30.27"   Gusts: NA
Location:  40.34°N, 80.38°W
Report Text: KPIT 201451Z 06004KT 10SM OVC023 M03/M07 A3027 RMK AO2 SLP273 T10281072 53005
Loading
Personal Weather Stations






























Interactive Weather Map New forecast layout! Learn more

10-Day Weather Forecast

Advertisements
Track Severe Weather on mobile